createdAt,value
2017-09-22T00:01:36.213Z,10.63
2017-09-22T00:04:03.672Z,10.10
2017-09-22T00:06:31.145Z,10.83
2017-09-22T00:08:59.392Z,13.00
2017-09-22T00:11:26.859Z,11.00
2017-09-22T00:13:54.318Z,12.03
2017-09-22T00:16:21.787Z,10.20
2017-09-22T00:18:49.498Z,10.67
2017-09-22T00:21:16.958Z,10.97
2017-09-22T00:23:44.418Z,10.67
2017-09-22T00:26:11.885Z,10.97
2017-09-22T00:28:39.347Z,10.93
2017-09-22T00:31:06.810Z,11.30
2017-09-22T00:33:34.278Z,10.97
2017-09-22T00:36:01.744Z,12.40
2017-09-22T00:38:29.221Z,10.00
2017-09-22T00:40:57.456Z,9.50
2017-09-22T00:43:24.937Z,10.30
2017-09-22T00:45:52.399Z,9.23
2017-09-22T00:48:19.871Z,10.73
2017-09-22T00:50:47.323Z,9.40
2017-09-22T00:53:14.798Z,9.27
2017-09-22T00:55:43.035Z,9.87
2017-09-22T00:58:10.508Z,10.60
2017-09-22T01:00:37.966Z,10.93
2017-09-22T01:03:05.435Z,8.60
2017-09-22T01:05:33.150Z,9.50
2017-09-22T01:08:00.634Z,10.50
2017-09-22T01:10:28.099Z,10.03
2017-09-22T01:12:55.574Z,14.33
2017-09-22T01:15:23.032Z,8.93
2017-09-22T01:17:50.497Z,9.13
2017-09-22T01:20:18.742Z,10.00
2017-09-22T01:22:46.219Z,10.27
2017-09-22T01:25:13.677Z,10.10
2017-09-22T01:27:41.138Z,9.57
2017-09-22T01:30:08.600Z,9.67
2017-09-22T01:32:36.084Z,9.80
2017-09-22T01:35:04.326Z,10.70
2017-09-22T01:37:31.781Z,12.00
2017-09-22T01:39:59.250Z,10.30
2017-09-22T01:42:26.718Z,11.20
2017-09-22T01:44:54.958Z,17.20
2017-09-22T01:47:22.419Z,9.87
2017-09-22T01:49:49.890Z,10.40
2017-09-22T01:52:17.351Z,10.70
2017-09-22T01:54:44.839Z,10.63
2017-09-22T01:57:13.063Z,11.70
2017-09-22T01:59:40.534Z,11.53
2017-09-22T02:02:08.021Z,9.90
2017-09-22T02:04:36.259Z,10.73
2017-09-22T02:07:03.718Z,11.53
2017-09-22T02:09:31.199Z,11.00
2017-09-22T02:11:59.439Z,11.53
2017-09-22T02:14:26.905Z,10.80
2017-09-22T02:16:54.381Z,10.47
2017-09-22T02:19:21.850Z,10.40
2017-09-22T02:21:49.326Z,10.60
2017-09-22T02:24:17.563Z,10.30
2017-09-22T02:26:45.041Z,13.63
2017-09-22T02:29:12.525Z,11.00
2017-09-22T02:31:40.004Z,12.40
2017-09-22T02:34:07.467Z,12.07
2017-09-22T02:36:34.957Z,11.33
2017-09-22T02:39:02.419Z,11.43
2017-09-22T02:41:29.908Z,11.83
2017-09-22T02:43:58.147Z,13.43
2017-09-22T02:46:25.662Z,11.47
2017-09-22T02:48:53.128Z,11.20
2017-09-22T02:51:20.618Z,12.30
2017-09-22T02:53:48.084Z,11.10
2017-09-22T02:56:15.568Z,11.67
2017-09-22T02:58:43.801Z,10.93
2017-09-22T03:01:11.279Z,13.30
2017-09-22T03:03:38.752Z,11.03
2017-09-22T03:06:06.232Z,13.30
2017-09-22T03:08:34.471Z,12.13
2017-09-22T03:11:01.956Z,11.57
2017-09-22T03:13:30.198Z,12.63
2017-09-22T03:15:57.710Z,14.83
2017-09-22T03:18:25.945Z,12.13
2017-09-22T03:20:53.424Z,17.13
2017-09-22T03:23:21.667Z,12.93
2017-09-22T03:25:49.140Z,10.77
2017-09-22T03:28:16.612Z,12.70
2017-09-22T03:30:44.087Z,15.03
2017-09-22T03:33:12.336Z,12.03
2017-09-22T03:35:39.814Z,12.53
2017-09-22T03:38:08.063Z,11.97
2017-09-22T03:40:35.551Z,16.33
2017-09-22T03:43:03.803Z,13.57
2017-09-22T03:45:31.283Z,11.87
2017-09-22T03:47:59.546Z,12.97
2017-09-22T03:50:27.011Z,13.67
2017-09-22T03:52:55.271Z,12.17
2017-09-22T03:55:22.752Z,14.50
2017-09-22T03:57:51.008Z,12.47
2017-09-22T04:00:18.488Z,13.00
2017-09-22T04:02:46.741Z,12.03
2017-09-22T04:05:14.207Z,11.30
2017-09-22T04:07:41.684Z,12.63
2017-09-22T04:10:09.922Z,12.00
2017-09-22T04:12:37.403Z,12.07
2017-09-22T04:15:04.883Z,12.33
2017-09-22T04:17:33.115Z,11.10
2017-09-22T04:20:00.591Z,11.40
2017-09-22T04:22:28.789Z,10.27
2017-09-22T04:24:57.023Z,10.80
2017-09-22T04:27:24.510Z,11.33
2017-09-22T04:29:51.995Z,12.07
2017-09-22T04:32:19.463Z,11.87
2017-09-22T04:34:46.951Z,13.47
2017-09-22T04:37:14.422Z,10.73
2017-09-22T04:39:41.897Z,10.83
2017-09-22T04:42:09.364Z,12.73
2017-09-22T04:44:37.985Z,10.17
2017-09-22T04:47:05.435Z,10.77
2017-09-22T04:49:32.914Z,12.13
2017-09-22T04:52:00.383Z,11.80
2017-09-22T04:54:28.356Z,9.80
2017-09-22T04:56:55.818Z,8.70
2017-09-22T04:59:23.295Z,10.03
2017-09-22T05:01:50.761Z,10.40
2017-09-22T05:04:18.237Z,9.77
2017-09-22T05:06:46.463Z,10.20
2017-09-22T05:09:13.943Z,11.10
2017-09-22T05:11:41.407Z,9.80
2017-09-22T05:14:08.887Z,10.40
2017-09-22T05:16:37.120Z,11.70
2017-09-22T05:19:04.591Z,9.73
2017-09-22T05:21:32.061Z,10.67
2017-09-22T05:23:59.535Z,9.90
2017-09-22T05:26:27.755Z,10.43
2017-09-22T05:28:55.236Z,9.30
2017-09-22T05:31:22.712Z,13.43
2017-09-22T05:33:50.176Z,10.50
2017-09-22T05:36:18.416Z,10.40
2017-09-22T05:38:46.648Z,11.63
2017-09-22T05:41:14.124Z,10.63
2017-09-22T05:43:41.587Z,10.07
2017-09-22T05:46:09.068Z,14.30
2017-09-22T05:48:36.552Z,12.17
2017-09-22T05:51:04.027Z,11.63
2017-09-22T05:53:32.263Z,11.37
2017-09-22T05:55:59.734Z,12.10
2017-09-22T05:58:27.203Z,12.83
2017-09-22T06:00:54.680Z,15.20
2017-09-22T06:03:22.915Z,14.17
2017-09-22T06:05:50.408Z,13.73
2017-09-22T06:08:18.659Z,14.57
2017-09-22T06:10:46.144Z,14.30
2017-09-22T06:13:14.401Z,13.50
2017-09-22T06:15:41.877Z,13.80
2017-09-22T06:18:10.125Z,13.87
2017-09-22T06:20:37.604Z,15.50
2017-09-22T06:23:05.093Z,15.07
2017-09-22T06:25:32.573Z,15.20
2017-09-22T06:28:00.043Z,16.53
2017-09-22T06:30:27.531Z,13.83
2017-09-22T06:32:55.007Z,13.47
2017-09-22T06:35:23.259Z,13.03
2017-09-22T06:37:50.747Z,13.37
2017-09-22T06:40:18.999Z,13.53
2017-09-22T06:42:46.478Z,15.30
2017-09-22T06:45:14.739Z,12.60
2017-09-22T06:47:42.207Z,14.50
2017-09-22T06:50:10.483Z,13.63
2017-09-22T06:52:37.943Z,13.47
2017-09-22T06:55:06.184Z,14.30
2017-09-22T06:57:34.423Z,13.13
2017-09-22T07:00:01.912Z,15.23
2017-09-22T07:02:29.390Z,15.13
2017-09-22T07:04:56.876Z,15.60
2017-09-22T07:07:25.122Z,18.07
2017-09-22T07:09:52.626Z,15.03
2017-09-22T07:12:20.099Z,17.73
2017-09-22T07:14:47.595Z,18.53
2017-09-22T07:17:15.060Z,16.70
2017-09-22T07:19:42.532Z,16.47
2017-09-22T07:22:10.072Z,17.90
2017-09-22T07:24:37.534Z,21.30
2017-09-22T07:27:05.036Z,18.87
2017-09-22T07:29:33.271Z,20.30
2017-09-22T07:32:00.755Z,20.50
2017-09-22T07:34:28.993Z,20.37
2017-09-22T07:36:57.237Z,19.27
2017-09-22T07:39:24.716Z,20.90
2017-09-22T07:41:52.184Z,18.50
2017-09-22T07:44:19.661Z,19.20
2017-09-22T07:46:47.136Z,21.67
2017-09-22T07:49:15.391Z,26.03
2017-09-22T07:51:42.867Z,18.83
2017-09-22T07:54:11.099Z,19.03
2017-09-22T07:56:38.568Z,20.97
2017-09-22T07:59:06.052Z,20.00
2017-09-22T08:01:33.524Z,20.37
2017-09-22T08:04:01.799Z,18.43
2017-09-22T08:06:29.256Z,19.40
2017-09-22T08:08:57.504Z,16.80
2017-09-22T08:11:24.971Z,18.90
2017-09-22T08:13:52.469Z,18.17
2017-09-22T08:16:19.935Z,18.70
2017-09-22T08:18:47.404Z,18.43
2017-09-22T08:21:14.887Z,22.33
2017-09-22T08:23:42.370Z,17.57
2017-09-22T08:26:09.837Z,16.13
2017-09-22T08:28:37.313Z,16.53
2017-09-22T08:31:05.538Z,20.50
2017-09-22T08:33:33.026Z,16.43
2017-09-22T08:36:00.500Z,17.43
2017-09-22T08:38:28.747Z,17.83
2017-09-22T08:40:56.216Z,17.10
2017-09-22T08:43:23.701Z,16.70
2017-09-22T08:45:51.936Z,16.63
2017-09-22T08:48:19.423Z,17.40
2017-09-22T08:50:47.733Z,17.47
2017-09-22T08:53:15.196Z,16.73
2017-09-22T08:55:42.679Z,15.97
2017-09-22T08:58:10.155Z,17.37
2017-09-22T09:00:37.633Z,16.30
2017-09-22T09:03:05.875Z,16.57
2017-09-22T09:05:33.356Z,17.63
2017-09-22T09:08:00.823Z,18.80
2017-09-22T09:10:29.069Z,17.20
2017-09-22T09:12:56.531Z,16.80
2017-09-22T09:15:24.008Z,17.23
2017-09-22T09:17:51.487Z,19.20
2017-09-22T09:20:19.728Z,18.90
2017-09-22T09:22:47.197Z,24.00
2017-09-22T09:25:14.671Z,20.87
2017-09-22T09:27:42.916Z,21.20
2017-09-22T09:30:10.380Z,19.00
2017-09-22T09:32:37.863Z,19.63
2017-09-22T09:35:06.099Z,19.50
2017-09-22T09:37:33.579Z,20.60
2017-09-22T09:40:01.051Z,21.03
2017-09-22T09:42:28.559Z,20.10
2017-09-22T09:44:56.023Z,20.03
2017-09-22T09:47:23.500Z,17.13
2017-09-22T09:49:51.798Z,19.97
2017-09-22T09:52:19.272Z,18.63
2017-09-22T09:54:47.507Z,19.07
2017-09-22T09:57:15.000Z,20.37
2017-09-22T09:59:43.292Z,19.47
2017-09-22T10:02:11.538Z,19.20
2017-09-22T10:04:39.004Z,18.27
2017-09-22T10:07:06.479Z,18.37
2017-09-22T10:09:34.720Z,17.87
2017-09-22T10:12:02.204Z,20.00
2017-09-22T10:14:32.904Z,19.33
2017-09-22T10:17:00.384Z,23.23
2017-09-22T10:19:27.850Z,21.13
2017-09-22T10:21:55.343Z,22.83
2017-09-22T10:24:22.818Z,22.80
2017-09-22T10:26:50.299Z,24.47
2017-09-22T10:29:17.781Z,24.10
2017-09-22T10:31:45.263Z,23.47
2017-09-22T10:34:13.492Z,23.97
2017-09-22T10:36:40.972Z,20.80
2017-09-22T10:39:08.442Z,21.23
2017-09-22T10:41:35.926Z,23.37
2017-09-22T10:44:03.398Z,24.27
2017-09-22T10:46:30.881Z,20.87
2017-09-22T10:48:58.358Z,20.30
2017-09-22T10:51:25.842Z,20.30
2017-09-22T10:53:54.074Z,18.00
2017-09-22T10:56:21.562Z,18.97
2017-09-22T10:58:49.455Z,19.13
2017-09-22T11:01:17.705Z,19.43
2017-09-22T11:03:45.175Z,19.13
2017-09-22T11:06:13.418Z,20.87
2017-09-22T11:08:40.886Z,17.93
2017-09-22T11:11:08.363Z,21.10
2017-09-22T11:13:35.831Z,20.13
2017-09-22T11:16:04.081Z,19.17
2017-09-22T11:18:31.549Z,20.10
2017-09-22T11:20:59.834Z,20.53
2017-09-22T11:23:27.315Z,18.40
2017-09-22T11:25:55.552Z,19.20
2017-09-22T11:28:23.275Z,24.73
2017-09-22T11:30:50.249Z,17.27
2017-09-22T11:33:17.723Z,16.70
2017-09-22T11:35:45.196Z,16.90
2017-09-22T11:38:12.705Z,16.17
2017-09-22T11:40:40.184Z,15.27
2017-09-22T11:43:07.664Z,13.80
2017-09-22T11:45:35.133Z,13.27
2017-09-22T11:48:02.599Z,13.60
2017-09-22T11:50:30.841Z,16.10
2017-09-22T11:52:58.307Z,16.10
2017-09-22T11:55:25.780Z,16.17
2017-09-22T11:57:53.263Z,14.80
2017-09-22T12:00:21.514Z,14.10
2017-09-22T12:02:49.023Z,15.20
2017-09-22T12:05:16.510Z,14.20
2017-09-22T12:07:44.010Z,13.90
2017-09-22T12:10:12.251Z,15.67
2017-09-22T12:12:39.726Z,15.27
2017-09-22T12:15:07.210Z,15.73
2017-09-22T12:17:34.702Z,13.40
2017-09-22T12:20:02.201Z,14.97
2017-09-22T12:22:29.681Z,13.80
2017-09-22T12:24:58.033Z,16.00
2017-09-22T12:27:25.565Z,13.23
2017-09-22T12:29:53.049Z,12.20
2017-09-22T12:32:20.530Z,13.13
2017-09-22T12:34:48.817Z,12.60
2017-09-22T12:37:17.056Z,13.40
2017-09-22T12:39:44.540Z,11.70
2017-09-22T12:42:12.017Z,13.73
2017-09-22T12:44:39.502Z,12.50
2017-09-22T12:47:06.968Z,12.67
2017-09-22T12:49:34.449Z,13.13
2017-09-22T12:52:01.927Z,14.57
2017-09-22T12:54:29.415Z,13.73
2017-09-22T12:56:56.883Z,13.73
2017-09-22T12:59:24.369Z,13.23
2017-09-22T13:01:51.837Z,15.30
2017-09-22T13:04:19.323Z,14.00
2017-09-22T13:06:46.788Z,13.83
2017-09-22T13:09:15.055Z,14.33
2017-09-22T13:11:43.321Z,13.10
2017-09-22T13:14:10.791Z,12.80
2017-09-22T13:16:38.262Z,13.30
2017-09-22T13:19:06.496Z,14.90
2017-09-22T13:21:33.979Z,14.53
2017-09-22T13:24:01.447Z,12.43
2017-09-22T13:26:29.691Z,12.87
2017-09-22T13:28:57.164Z,11.83
2017-09-22T13:31:24.653Z,12.73
2017-09-22T13:33:52.884Z,11.23
2017-09-22T13:36:20.363Z,14.83
2017-09-22T13:38:47.827Z,11.17
2017-09-22T13:41:15.336Z,12.27
2017-09-22T13:43:42.812Z,12.23
2017-09-22T13:46:10.296Z,11.97
2017-09-22T13:48:37.756Z,12.83
2017-09-22T13:51:05.270Z,11.10
2017-09-22T13:53:32.728Z,12.17
2017-09-22T13:56:00.208Z,11.50
2017-09-22T13:58:27.699Z,11.07
2017-09-22T14:00:55.175Z,11.90
2017-09-22T14:03:23.420Z,12.27
2017-09-22T14:05:50.892Z,9.87
2017-09-22T14:08:18.371Z,10.00
2017-09-22T14:10:46.611Z,10.10
2017-09-22T14:13:14.095Z,9.90
2017-09-22T14:15:44.780Z,11.80
2017-09-22T14:18:12.251Z,10.40
2017-09-22T14:20:39.716Z,10.60
2017-09-22T14:23:07.198Z,11.40
2017-09-22T14:25:34.663Z,11.23
2017-09-22T14:28:04.107Z,12.40
2017-09-22T14:30:31.595Z,11.53
2017-09-22T14:35:52.850Z,11.43
2017-09-22T14:38:20.316Z,11.83
2017-09-22T14:40:48.547Z,12.30
2017-09-22T14:43:16.032Z,13.90
2017-09-22T14:45:43.507Z,11.57
2017-09-22T14:48:11.764Z,13.27
2017-09-22T14:50:39.235Z,14.30
2017-09-22T14:53:06.725Z,14.93
2017-09-22T14:55:34.200Z,11.00
2017-09-22T14:58:01.696Z,12.10
2017-09-22T15:00:29.165Z,13.07
2017-09-22T15:02:56.633Z,14.50
2017-09-22T15:05:24.117Z,15.60
2017-09-22T15:07:51.603Z,16.67
2017-09-22T15:10:19.092Z,15.97
2017-09-22T15:12:46.646Z,16.77
2017-09-22T15:15:14.937Z,17.17
2017-09-22T15:17:42.399Z,15.30
2017-09-22T15:20:09.871Z,16.13
2017-09-22T15:22:38.142Z,14.83
2017-09-22T15:25:05.628Z,12.90
2017-09-22T15:27:33.096Z,15.37
2017-09-22T15:30:00.608Z,16.17
2017-09-22T15:32:28.080Z,15.73
2017-09-22T15:34:56.323Z,16.00
2017-09-22T15:37:23.803Z,15.40
2017-09-22T15:39:51.292Z,15.50
2017-09-22T15:42:18.768Z,16.27
2017-09-22T15:44:46.251Z,15.73
2017-09-22T15:47:14.140Z,16.60
2017-09-22T15:49:41.615Z,14.90
2017-09-22T15:52:09.962Z,14.60
2017-09-22T15:54:37.467Z,15.27
2017-09-22T15:57:05.693Z,14.03
2017-09-22T15:59:33.175Z,12.60
2017-09-22T16:02:00.643Z,11.43
2017-09-22T16:04:28.118Z,13.70
2017-09-22T16:06:56.373Z,13.10
2017-09-22T16:09:23.878Z,11.33
2017-09-22T16:11:51.348Z,10.60
2017-09-22T16:14:18.824Z,11.80
2017-09-22T16:16:46.298Z,9.33
2017-09-22T16:19:13.793Z,10.97
2017-09-22T16:21:42.044Z,9.60
2017-09-22T16:24:09.507Z,11.13
2017-09-22T16:26:36.989Z,8.07
2017-09-22T16:29:04.452Z,7.90
2017-09-22T16:31:31.933Z,10.40
2017-09-22T16:33:59.395Z,9.47
2017-09-22T16:36:26.883Z,8.70
2017-09-22T16:38:54.351Z,8.47
2017-09-22T16:41:21.836Z,8.03
2017-09-22T16:43:50.060Z,9.87
2017-09-22T16:46:17.587Z,8.50
2017-09-22T16:48:45.919Z,8.30
2017-09-22T16:51:13.386Z,10.03
2017-09-22T16:53:40.864Z,9.07
2017-09-22T16:56:09.097Z,10.47
2017-09-22T16:58:36.560Z,9.00
2017-09-22T17:01:04.023Z,9.97
2017-09-22T17:03:31.504Z,10.07
2017-09-22T17:05:59.731Z,10.33
2017-09-22T17:08:27.216Z,9.20
2017-09-22T17:10:54.688Z,10.20
2017-09-22T17:13:22.166Z,8.83
2017-09-22T17:15:50.391Z,9.33
2017-09-22T17:18:18.641Z,9.80
2017-09-22T17:20:46.108Z,8.87
2017-09-22T17:23:13.581Z,9.80
2017-09-22T17:25:41.050Z,10.07
2017-09-22T17:28:08.587Z,13.10
2017-09-22T17:30:36.059Z,18.00
2017-09-22T17:33:03.540Z,12.73
2017-09-22T17:35:31.066Z,12.07
2017-09-22T17:37:58.568Z,13.07
2017-09-22T17:40:26.035Z,11.40
2017-09-22T17:42:54.282Z,11.50
2017-09-22T17:45:21.788Z,11.80
2017-09-22T17:47:50.028Z,13.00
2017-09-22T17:50:17.495Z,12.67
2017-09-22T17:52:44.977Z,11.90
2017-09-22T17:55:13.246Z,12.50
2017-09-22T17:57:41.492Z,16.47
2017-09-22T18:00:09.642Z,16.17
2017-09-22T18:02:37.120Z,14.53
2017-09-22T18:05:04.600Z,14.97
2017-09-22T18:07:32.066Z,14.50
2017-09-22T18:10:00.315Z,14.33
2017-09-22T18:12:28.550Z,14.97
2017-09-22T18:14:56.040Z,15.73
2017-09-22T18:17:23.502Z,15.73
2017-09-22T18:19:50.988Z,14.10
2017-09-22T18:22:18.455Z,14.80
2017-09-22T18:24:46.700Z,15.40
2017-09-22T18:27:15.592Z,13.80
2017-09-22T18:29:43.131Z,12.40
2017-09-22T18:32:11.004Z,12.97
2017-09-22T18:34:38.492Z,15.60
2017-09-22T18:37:05.962Z,13.13
2017-09-22T18:39:34.226Z,14.27
2017-09-22T18:42:01.720Z,14.50
2017-09-22T18:44:30.695Z,14.40
2017-09-22T18:46:58.944Z,13.27
2017-09-22T18:49:26.421Z,13.93
2017-09-22T18:51:53.893Z,12.53
2017-09-22T18:54:22.140Z,12.90
2017-09-22T18:56:49.612Z,13.80
2017-09-22T18:59:17.084Z,14.27
2017-09-22T19:01:45.341Z,13.27
2017-09-22T19:04:12.810Z,14.80
2017-09-22T19:06:40.293Z,14.47
2017-09-22T19:09:08.528Z,12.60
2017-09-22T19:11:36.039Z,12.40
2017-09-22T19:14:03.519Z,12.10
2017-09-22T19:16:30.996Z,12.80
2017-09-22T19:18:58.516Z,13.77
2017-09-22T19:21:25.992Z,14.87
2017-09-22T19:23:53.455Z,15.17
2017-09-22T19:26:20.940Z,14.33
2017-09-22T19:28:48.605Z,13.27
2017-09-22T19:31:16.108Z,13.10
2017-09-22T19:33:43.576Z,14.93
2017-09-22T19:36:11.045Z,13.53
2017-09-22T19:38:38.554Z,15.43
2017-09-22T19:41:06.029Z,16.83
2017-09-22T19:43:34.277Z,17.53
2017-09-22T19:46:01.749Z,12.50
2017-09-22T19:48:29.391Z,16.17
2017-09-22T19:50:57.003Z,14.00
2017-09-22T19:53:24.553Z,14.63
2017-09-22T19:55:52.838Z,12.83
2017-09-22T19:58:20.374Z,13.80
2017-09-22T20:00:49.698Z,14.23
2017-09-22T20:03:17.427Z,13.93
2017-09-22T20:05:44.977Z,14.63
2017-09-22T20:08:12.571Z,13.73
2017-09-22T20:10:40.072Z,15.33
2017-09-22T20:13:07.633Z,15.33
2017-09-22T20:15:35.111Z,12.77
2017-09-22T20:18:02.996Z,13.77
2017-09-22T20:20:30.502Z,13.67
2017-09-22T20:22:57.967Z,13.60
2017-09-22T20:25:25.435Z,13.13
2017-09-22T20:27:52.968Z,12.83
2017-09-22T20:30:20.452Z,13.80
2017-09-22T20:32:47.921Z,12.80
2017-09-22T20:35:15.407Z,13.70
2017-09-22T20:37:42.872Z,11.60
2017-09-22T20:40:11.127Z,12.00
2017-09-22T20:42:38.608Z,12.40
2017-09-22T20:45:06.855Z,10.90
2017-09-22T20:47:34.320Z,12.10
2017-09-22T20:50:01.805Z,11.37
2017-09-22T20:52:30.027Z,11.27
2017-09-22T20:54:57.524Z,12.70
2017-09-22T20:57:24.989Z,12.30
2017-09-22T20:59:52.472Z,11.47
2017-09-22T21:02:19.935Z,11.63
2017-09-22T21:04:47.415Z,11.77
2017-09-22T21:07:14.883Z,13.03
2017-09-22T21:09:42.363Z,12.00
2017-09-22T21:12:09.841Z,13.20
2017-09-22T21:14:37.326Z,13.47
2017-09-22T21:17:04.814Z,13.57
2017-09-22T21:19:32.292Z,12.73
2017-09-22T21:22:00.553Z,12.90
2017-09-22T21:24:28.044Z,11.43
2017-09-22T21:26:55.514Z,14.67
2017-09-22T21:29:23.755Z,12.47
2017-09-22T21:31:51.228Z,10.73
2017-09-22T21:34:18.708Z,12.83
2017-09-22T21:36:47.808Z,15.50
2017-09-22T21:39:16.081Z,12.13
2017-09-22T21:41:44.309Z,12.80
2017-09-22T21:44:12.771Z,13.10
2017-09-22T21:46:40.256Z,14.57
2017-09-22T21:49:07.732Z,12.40
2017-09-22T21:51:35.203Z,10.47
2017-09-22T21:54:03.448Z,12.93
2017-09-22T21:56:30.936Z,11.90
2017-09-22T21:58:58.410Z,11.60
2017-09-22T22:01:26.653Z,10.10
2017-09-22T22:04:00.229Z,10.50
2017-09-22T22:06:33.319Z,12.00
2017-09-22T22:09:04.768Z,13.37
2017-09-22T22:11:32.244Z,11.40
2017-09-22T22:13:59.716Z,10.90
2017-09-22T22:16:31.262Z,11.20
2017-09-22T22:18:58.736Z,11.07
2017-09-22T22:21:26.217Z,11.10
2017-09-22T22:23:54.461Z,11.93
2017-09-22T22:26:21.934Z,12.00
2017-09-22T22:28:49.422Z,12.77
2017-09-22T22:31:17.676Z,11.40
2017-09-22T22:33:45.145Z,13.60
2017-09-22T22:36:25.152Z,14.60
2017-09-22T22:38:52.614Z,13.40
2017-09-22T22:41:20.093Z,13.40
2017-09-22T22:43:47.585Z,11.73
2017-09-22T22:46:15.828Z,12.57
2017-09-22T22:48:43.972Z,12.20
2017-09-22T22:51:11.444Z,13.57
2017-09-22T22:53:38.924Z,13.53
2017-09-22T22:56:06.412Z,12.37
2017-09-22T22:58:34.660Z,13.50
2017-09-22T23:01:02.127Z,11.27
2017-09-22T23:03:30.702Z,13.10
2017-09-22T23:05:58.948Z,13.47
2017-09-22T23:08:26.486Z,11.23
2017-09-22T23:10:53.997Z,13.00
2017-09-22T23:13:21.476Z,15.80
2017-09-22T23:15:49.703Z,12.60
2017-09-22T23:18:17.191Z,15.30
2017-09-22T23:20:44.660Z,12.53
2017-09-22T23:23:12.912Z,13.23
2017-09-22T23:25:40.385Z,11.93
2017-09-22T23:28:07.867Z,15.63
2017-09-22T23:30:36.118Z,12.63
2017-09-22T23:33:03.598Z,15.80
2017-09-22T23:35:31.840Z,13.50
2017-09-22T23:37:59.324Z,12.83
2017-09-22T23:40:27.564Z,12.37
2017-09-22T23:42:55.048Z,13.53
2017-09-22T23:45:22.515Z,13.30
2017-09-22T23:47:50.776Z,11.70
2017-09-22T23:50:18.252Z,13.77
2017-09-22T23:52:46.499Z,12.53
2017-09-22T23:55:13.984Z,14.63
2017-09-22T23:57:41.473Z,15.10
